WetterOnline ( http://www.wetteronline.de )

Wetter aktuell Der Rennsteig (in 900m)

Aktuelles Wetter: Schmücke (948m)

6-stündlich | Neueste Meldungen
Ortszeit Temperatur Wetter
Do, 21.06. 14:00 15.0° C bewölkt
Do, 21.06. 8:00 16.7° C wolkig
Do, 21.06. 2:00 16.2° C wolkenlos
Mi, 20.06. 20:00 22.1° C wolkenlos
Mi, 20.06. 14:00 21.7° C leicht bewölkt
Mi, 20.06. 8:00 14.9° C bewölkt
Mi, 20.06. 2:00 12.9° C wolkenlos
Di, 19.06. 20:00 17.1° C bewölkt
Ortszeit Temperatur Wetter
Do, 21.06. 16:00 14.7° C wolkig
Do, 21.06. 15:50 14.7° C wolkig
Do, 21.06. 15:40 14.3° C bewölkt
Do, 21.06. 15:30 13.4° C bewölkt
Do, 21.06. 15:20 13.4° C bewölkt
Do, 21.06. 15:10 12.6° C bedeckt
Do, 21.06. 15:00 11.9° C bedeckt
Do, 21.06. 14:30 12.2° C leichter Regen
Do, 21.06. 14:00 15.0° C bewölkt
Do, 21.06. 13:30 17.5° C bewölkt
Do, 21.06. 13:00 17.8° C bewölkt
Ortszeit Relative Feuchte Sichtweite
Do, 21.06. 14:00 79% 35 km
Do, 21.06. 8:00 75% 25 km
Do, 21.06. 2:00 72% 35 km
Mi, 20.06. 20:00 50% 45 km
Mi, 20.06. 14:00 62% 25 km
Mi, 20.06. 8:00 90% 17 km
Mi, 20.06. 2:00 94% 11 km
Di, 19.06. 20:00 74% 45 km
Ortszeit Relative Feuchte Sichtweite
Do, 21.06. 16:00 80% 18 km
Do, 21.06. 15:50 80% -
Do, 21.06. 15:40 82% -
Do, 21.06. 15:30 92% 8 km
Do, 21.06. 15:20 92% -
Do, 21.06. 15:10 95% -
Do, 21.06. 15:00 97% 4.1 km
Do, 21.06. 14:30 85% 6 km
Do, 21.06. 14:00 79% 35 km
Do, 21.06. 13:30 66% 45 km
Do, 21.06. 13:00 60% 50 km
Ortszeit Niederschlagsmenge Niederschlagsart
Do, 21.06. 14:00 0.1 l/m2 in 6 Std. Regen
Do, 21.06. 8:00 0.0 l/m2 in 12 Std. -
Do, 21.06. 2:00 0.0 l/m2 in 6 Std. -
Mi, 20.06. 20:00 0.0 l/m2 in 12 Std. -
Mi, 20.06. 14:00 0.0 l/m2 in 6 Std. -
Mi, 20.06. 8:00 0.0 l/m2 in 12 Std. -
Mi, 20.06. 2:00 0.0 l/m2 in 6 Std. -
Di, 19.06. 20:00 0.0 l/m2 in 12 Std. -
Ortszeit Niederschlagsmenge Niederschlagsart
Do, 21.06. 16:00 0.1 l/m2 in 1 Std. -
Do, 21.06. 15:50 keine Meldung -
Do, 21.06. 15:40 keine Meldung -
Do, 21.06. 15:30 0.1 l/m2 in 1 Std. -
Do, 21.06. 15:20 keine Meldung -
Do, 21.06. 15:10 keine Meldung -
Do, 21.06. 15:00 0.7 l/m2 in 1 Std. Regen
Do, 21.06. 14:30 0.1 l/m2 in 1 Std. -
Do, 21.06. 14:00 0.1 l/m2 in 1 Std. Regen
Do, 21.06. 13:30 0.0 l/m2 in 1 Std. -
Do, 21.06. 13:00 0.0 l/m2 in 1 Std. -
Ortszeit Stärke Spitze Richtung
km/h Bft. km/h Grad Sektor
Do, 21.06. 14:00 30 5 59 260° W
Do, 21.06. 8:00 22 4 36 230° SW
Do, 21.06. 2:00 19 3 26 260° W
Mi, 20.06. 20:00 9 2 37 230° SW
Mi, 20.06. 14:00 14 3 32 210° SW
Mi, 20.06. 8:00 4 1 14 150° SO
Mi, 20.06. 2:00 9 2 19 20° N
Di, 19.06. 20:00 11 2 28 260° W
Ortszeit Stärke Spitze Richtung
km/h Bft. km/h Grad Sektor
Do, 21.06. 16:00 20 4 46 270° W
Do, 21.06. 15:50 20 4 - 270° W
Do, 21.06. 15:40 22 4 - 270° W
Do, 21.06. 15:30 14 3 36 260° W
Do, 21.06. 15:20 14 3 - 260° W
Do, 21.06. 15:10 19 3 - 270° W
Do, 21.06. 15:00 18 3 50 260° W
Do, 21.06. 14:30 22 4 50 270° W
Do, 21.06. 14:00 30 5 59 260° W
Do, 21.06. 13:30 33 5 54 250° W
Do, 21.06. 13:00 24 4 54 250° W
Ortszeit Untergrenze Bedeckung Gattung
total tief tief mittel hoch
Do, 21.06. 14:00 240 m 7/8 7/8 - - -
Do, 21.06. 8:00 1200 m 5/8 7/8 - - -
Do, 21.06. 2:00 - 0/8 0/8 - - -
Mi, 20.06. 20:00 - 0/8 0/8 - - -
Mi, 20.06. 14:00 930 m 3/8 - - - -
Mi, 20.06. 8:00 420 m 7/8 7/8 - - -
Mi, 20.06. 2:00 - 0/8 0/8 - - -
Di, 19.06. 20:00 1200 m 7/8 - - - -
Ortszeit Bedeckungsgrad in Achtel und Wolkenuntergrenze
Do, 21.06. 16:00 3(360m) 5(690m) 6(1500m)
Do, 21.06. 15:50 3(360m) 5(690m) 6(1500m)
Do, 21.06. 15:40 2(210m) 6(540m) 7(690m)
Do, 21.06. 15:30 2(30m) 7(180m) 7(330m)
Do, 21.06. 15:20 2(30m) 7(180m) 7(330m)
Do, 21.06. 15:10 5(30m) 7(150m) 8(420m)
Do, 21.06. 15:00 7(60m) 7(210m) 8(1500m)
Do, 21.06. 14:30 2(60m) 7(330m) 8(540m)
Do, 21.06. 14:00 2(240m) 7(1440m) 7(2100m)
Do, 21.06. 13:30 4(840m) 7(1500m) 7(2100m)
Do, 21.06. 13:00 4(930m) 7(1140m) 7(1500m)
Ortszeit Stationsdruck (hPa) Tendenz (hPa in 3 Std.)
Do, 21.06. 14:00 908 + 0,9
Do, 21.06. 8:00 908 - 1,6
Do, 21.06. 2:00 912 - 1,5
Mi, 20.06. 20:00 913 - 1,2
Mi, 20.06. 14:00 916 - 0,9
Mi, 20.06. 8:00 917 - 0,3
Mi, 20.06. 2:00 918 - 0,1
Di, 19.06. 20:00 917 0,0
Ortszeit Stationsdruck (hPa) Tendenz (hPa in 3 Std.)
Do, 21.06. 16:00 909 + 0,9
Do, 21.06. 15:50 909 keine Meldung
Do, 21.06. 15:40 909 keine Meldung
Do, 21.06. 15:30 909 + 0,7
Do, 21.06. 15:20 909 keine Meldung
Do, 21.06. 15:10 909 keine Meldung
Do, 21.06. 15:00 909 + 0,9
Do, 21.06. 14:30 909 + 1,0
Do, 21.06. 14:00 908 + 0,9
Do, 21.06. 13:30 908 + 0,5
Do, 21.06. 13:00 908 + 0,3
Ortszeit Schneehöhe (cm)
Do, 21.06. 14:00 -
Do, 21.06. 8:00 -
Do, 21.06. 2:00 -
Mi, 20.06. 20:00 -
Mi, 20.06. 14:00 -
Mi, 20.06. 8:00 -
Mi, 20.06. 2:00 -
Di, 19.06. 20:00 -
Ortszeit Schneehöhe (cm)
Do, 21.06. 16:00 -
Do, 21.06. 15:50 -
Do, 21.06. 15:40 -
Do, 21.06. 15:30 -
Do, 21.06. 15:20 -
Do, 21.06. 15:10 -
Do, 21.06. 15:00 -
Do, 21.06. 14:30 -
Do, 21.06. 14:00 -
Do, 21.06. 13:30 -
Do, 21.06. 13:00 -
Link zu dieser Seite / Seite empfehlen

Das Wetter in ...